sensor_id;sensor_type;location;lat;lon;timestamp;temperature;humidity
2663;DHT22;49701;48.072;7.800;2024-02-16T00:00:09;10.00;99.90
2663;DHT22;49701;48.072;7.800;2024-02-16T00:02:39;10.00;99.90
2663;DHT22;49701;48.072;7.800;2024-02-16T00:05:06;10.00;99.90
2663;DHT22;49701;48.072;7.800;2024-02-16T00:07:35;9.90;99.90
2663;DHT22;49701;48.072;7.800;2024-02-16T00:10:02;9.90;99.90
2663;DHT22;49701;48.072;7.800;2024-02-16T00:12:30;9.90;99.90
2663;DHT22;49701;48.072;7.800;2024-02-16T00:14:56;9.90;99.90
2663;DHT22;49701;48.072;7.800;2024-02-16T00:17:22;9.90;99.90
2663;DHT22;49701;48.072;7.800;2024-02-16T00:19:47;9.90;99.90
2663;DHT22;49701;48.072;7.800;2024-02-16T00:22:13;9.90;99.90
2663;DHT22;49701;48.072;7.800;2024-02-16T00:24:38;9.90;99.90
2663;DHT22;49701;48.072;7.800;2024-02-16T00:27:04;9.90;99.90
2663;DHT22;49701;48.072;7.800;2024-02-16T00:29:31;9.90;99.90
2663;DHT22;49701;48.072;7.800;2024-02-16T00:31:57;9.90;99.90
2663;DHT22;49701;48.072;7.800;2024-02-16T00:34:24;9.90;99.90
2663;DHT22;49701;48.072;7.800;2024-02-16T00:36:50;9.90;99.90
2663;DHT22;49701;48.072;7.800;2024-02-16T00:39:16;9.90;99.90
2663;DHT22;49701;48.072;7.800;2024-02-16T00:41:41;9.90;99.90
2663;DHT22;49701;48.072;7.800;2024-02-16T00:44:07;9.90;99.90
2663;DHT22;49701;48.072;7.800;2024-02-16T00:46:35;9.90;99.90
2663;DHT22;49701;48.072;7.800;2024-02-16T00:49:01;9.80;99.90
2663;DHT22;49701;48.072;7.800;2024-02-16T00:51:27;9.80;99.90
2663;DHT22;49701;48.072;7.800;2024-02-16T00:53:52;9.90;99.90
2663;DHT22;49701;48.072;7.800;2024-02-16T00:56:18;9.90;99.90
2663;DHT22;49701;48.072;7.800;2024-02-16T00:58:43;9.90;99.90
2663;DHT22;49701;48.072;7.800;2024-02-16T01:01:09;10.00;99.90
2663;DHT22;49701;48.072;7.800;2024-02-16T01:03:37;10.00;99.90
2663;DHT22;49701;48.072;7.800;2024-02-16T01:06:03;10.00;99.90
2663;DHT22;49701;48.072;7.800;2024-02-16T01:08:28;10.00;99.90
2663;DHT22;49701;48.072;7.800;2024-02-16T01:10:55;10.00;99.90
2663;DHT22;49701;48.072;7.800;2024-02-16T01:13:20;10.00;99.90
2663;DHT22;49701;48.072;7.800;2024-02-16T01:15:46;10.00;99.90
2663;DHT22;49701;48.072;7.800;2024-02-16T01:18:12;10.00;99.90
2663;DHT22;49701;48.072;7.800;2024-02-16T01:20:37;10.00;99.90
2663;DHT22;49701;48.072;7.800;2024-02-16T01:23:03;10.00;99.90
2663;DHT22;49701;48.072;7.800;2024-02-16T01:25:30;10.00;99.90
2663;DHT22;49701;48.072;7.800;2024-02-16T01:27:56;10.00;99.90
2663;DHT22;49701;48.072;7.800;2024-02-16T01:30:21;9.90;99.90
2663;DHT22;49701;48.072;7.800;2024-02-16T01:32:47;9.90;99.90
2663;DHT22;49701;48.072;7.800;2024-02-16T01:35:13;9.80;99.90
2663;DHT22;49701;48.072;7.800;2024-02-16T01:37:40;9.80;99.90
2663;DHT22;49701;48.072;7.800;2024-02-16T01:40:06;9.80;99.90
2663;DHT22;49701;48.072;7.800;2024-02-16T01:42:33;9.80;99.90
2663;DHT22;49701;48.072;7.800;2024-02-16T01:44:58;9.70;99.90
2663;DHT22;49701;48.072;7.800;2024-02-16T01:47:24;9.70;99.90
2663;DHT22;49701;48.072;7.800;2024-02-16T01:49:49;9.70;99.90
2663;DHT22;49701;48.072;7.800;2024-02-16T01:52:15;9.70;99.90
2663;DHT22;49701;48.072;7.800;2024-02-16T01:54:41;9.70;99.90
2663;DHT22;49701;48.072;7.800;2024-02-16T01:57:06;9.70;99.90
2663;DHT22;49701;48.072;7.800;2024-02-16T01:59:32;9.70;99.90
2663;DHT22;49701;48.072;7.800;2024-02-16T02:01:59;9.60;99.90
2663;DHT22;49701;48.072;7.800;2024-02-16T02:04:25;9.60;99.90
2663;DHT22;49701;48.072;7.800;2024-02-16T02:06:51;9.60;99.90
2663;DHT22;49701;48.072;7.800;2024-02-16T02:09:17;9.60;99.90
2663;DHT22;49701;48.072;7.800;2024-02-16T02:11:42;9.60;99.90
2663;DHT22;49701;48.072;7.800;2024-02-16T02:14:08;9.60;99.90
2663;DHT22;49701;48.072;7.800;2024-02-16T02:16:33;9.60;99.90
2663;DHT22;49701;48.072;7.800;2024-02-16T02:18:59;9.60;99.90
2663;DHT22;49701;48.072;7.800;2024-02-16T02:21:25;9.50;99.90
2663;DHT22;49701;48.072;7.800;2024-02-16T02:23:50;9.50;99.90
2663;DHT22;49701;48.072;7.800;2024-02-16T02:26:16;9.50;99.90
2663;DHT22;49701;48.072;7.800;2024-02-16T02:28:45;9.50;99.90
2663;DHT22;49701;48.072;7.800;2024-02-16T02:31:11;9.50;99.90
2663;DHT22;49701;48.072;7.800;2024-02-16T02:33:36;9.50;99.90
2663;DHT22;49701;48.072;7.800;2024-02-16T02:36:02;9.50;99.90
2663;DHT22;49701;48.072;7.800;2024-02-16T02:38:30;9.40;99.90
2663;DHT22;49701;48.072;7.800;2024-02-16T02:40:56;9.50;99.90
2663;DHT22;49701;48.072;7.800;2024-02-16T02:43:22;9.50;99.90
2663;DHT22;49701;48.072;7.800;2024-02-16T02:45:48;9.50;99.90
2663;DHT22;49701;48.072;7.800;2024-02-16T02:48:14;9.40;99.90
2663;DHT22;49701;48.072;7.800;2024-02-16T02:50:39;9.50;99.90
2663;DHT22;49701;48.072;7.800;2024-02-16T02:53:05;9.50;99.90
2663;DHT22;49701;48.072;7.800;2024-02-16T02:55:30;9.50;99.90
2663;DHT22;49701;48.072;7.800;2024-02-16T02:57:56;9.40;99.90
2663;DHT22;49701;48.072;7.800;2024-02-16T03:00:23;9.50;99.90
2663;DHT22;49701;48.072;7.800;2024-02-16T03:02:48;9.40;99.90
2663;DHT22;49701;48.072;7.800;2024-02-16T03:05:14;9.40;99.90
2663;DHT22;49701;48.072;7.800;2024-02-16T03:07:39;9.40;99.90
2663;DHT22;49701;48.072;7.800;2024-02-16T03:10:05;9.40;99.90
2663;DHT22;49701;48.072;7.800;2024-02-16T03:12:31;9.40;99.90
2663;DHT22;49701;48.072;7.800;2024-02-16T03:14:57;9.40;99.90
2663;DHT22;49701;48.072;7.800;2024-02-16T03:17:23;9.40;99.90
2663;DHT22;49701;48.072;7.800;2024-02-16T03:19:48;9.40;99.90
2663;DHT22;49701;48.072;7.800;2024-02-16T03:22:14;9.40;99.90
2663;DHT22;49701;48.072;7.800;2024-02-16T03:24:39;9.40;99.90
2663;DHT22;49701;48.072;7.800;2024-02-16T03:27:05;9.30;99.90
2663;DHT22;49701;48.072;7.800;2024-02-16T03:29:30;9.30;99.90
2663;DHT22;49701;48.072;7.800;2024-02-16T03:31:56;9.30;99.90
2663;DHT22;49701;48.072;7.800;2024-02-16T03:34:21;9.30;99.90
2663;DHT22;49701;48.072;7.800;2024-02-16T03:36:47;9.40;99.90
2663;DHT22;49701;48.072;7.800;2024-02-16T03:39:13;9.30;99.90
2663;DHT22;49701;48.072;7.800;2024-02-16T03:41:39;9.30;99.90
2663;DHT22;49701;48.072;7.800;2024-02-16T03:44:04;9.30;99.90
2663;DHT22;49701;48.072;7.800;2024-02-16T03:46:30;9.30;99.90
2663;DHT22;49701;48.072;7.800;2024-02-16T03:48:55;9.30;99.90
2663;DHT22;49701;48.072;7.800;2024-02-16T03:51:21;9.30;99.90
2663;DHT22;49701;48.072;7.800;2024-02-16T03:53:47;9.30;99.90
2663;DHT22;49701;48.072;7.800;2024-02-16T03:56:17;9.40;99.90
2663;DHT22;49701;48.072;7.800;2024-02-16T03:58:43;9.30;99.90
2663;DHT22;49701;48.072;7.800;2024-02-16T04:01:09;9.30;99.90
2663;DHT22;49701;48.072;7.800;2024-02-16T04:03:34;9.30;99.90
2663;DHT22;49701;48.072;7.800;2024-02-16T04:06:00;9.20;99.90
2663;DHT22;49701;48.072;7.800;2024-02-16T04:08:26;9.20;99.90
2663;DHT22;49701;48.072;7.800;2024-02-16T04:10:52;9.20;99.90
2663;DHT22;49701;48.072;7.800;2024-02-16T04:13:17;9.20;99.90
2663;DHT22;49701;48.072;7.800;2024-02-16T04:15:43;9.10;99.90
2663;DHT22;49701;48.072;7.800;2024-02-16T04:18:08;9.20;99.90
2663;DHT22;49701;48.072;7.800;2024-02-16T04:20:34;9.10;99.90
2663;DHT22;49701;48.072;7.800;2024-02-16T04:23:00;9.10;99.90
2663;DHT22;49701;48.072;7.800;2024-02-16T04:25:26;9.10;99.90
2663;DHT22;49701;48.072;7.800;2024-02-16T04:27:51;9.10;99.90
2663;DHT22;49701;48.072;7.800;2024-02-16T04:30:17;9.20;99.90
2663;DHT22;49701;48.072;7.800;2024-02-16T04:32:42;9.20;99.90
2663;DHT22;49701;48.072;7.800;2024-02-16T04:35:08;9.10;99.90
2663;DHT22;49701;48.072;7.800;2024-02-16T04:37:37;9.10;99.90
2663;DHT22;49701;48.072;7.800;2024-02-16T04:40:04;9.10;99.90
2663;DHT22;49701;48.072;7.800;2024-02-16T04:42:31;9.10;99.90
2663;DHT22;49701;48.072;7.800;2024-02-16T04:44:56;9.10;99.90
2663;DHT22;49701;48.072;7.800;2024-02-16T04:47:22;9.10;99.90
2663;DHT22;49701;48.072;7.800;2024-02-16T04:49:47;9.10;99.90
2663;DHT22;49701;48.072;7.800;2024-02-16T04:52:13;9.00;99.90
2663;DHT22;49701;48.072;7.800;2024-02-16T04:54:38;9.00;99.90
2663;DHT22;49701;48.072;7.800;2024-02-16T04:57:06;9.00;99.90
2663;DHT22;49701;48.072;7.800;2024-02-16T04:59:31;9.00;99.90
2663;DHT22;49701;48.072;7.800;2024-02-16T05:01:57;8.90;99.90
2663;DHT22;49701;48.072;7.800;2024-02-16T05:04:23;8.90;99.90
2663;DHT22;49701;48.072;7.800;2024-02-16T05:06:48;8.90;99.90
2663;DHT22;49701;48.072;7.800;2024-02-16T05:09:16;8.90;99.90
2663;DHT22;49701;48.072;7.800;2024-02-16T05:11:45;8.80;99.90
2663;DHT22;49701;48.072;7.800;2024-02-16T05:14:11;8.80;99.90
2663;DHT22;49701;48.072;7.800;2024-02-16T05:16:43;8.80;99.90
2663;DHT22;49701;48.072;7.800;2024-02-16T05:19:08;8.80;99.90
2663;DHT22;49701;48.072;7.800;2024-02-16T05:21:34;8.80;99.90
2663;DHT22;49701;48.072;7.800;2024-02-16T05:24:00;8.80;99.90
2663;DHT22;49701;48.072;7.800;2024-02-16T05:26:26;8.70;99.90
2663;DHT22;49701;48.072;7.800;2024-02-16T05:28:51;8.70;99.90
2663;DHT22;49701;48.072;7.800;2024-02-16T05:31:17;8.60;99.90
2663;DHT22;49701;48.072;7.800;2024-02-16T05:33:44;8.60;99.90
2663;DHT22;49701;48.072;7.800;2024-02-16T05:36:10;8.60;99.90
2663;DHT22;49701;48.072;7.800;2024-02-16T05:38:36;8.70;99.90
2663;DHT22;49701;48.072;7.800;2024-02-16T05:41:09;8.60;99.90
2663;DHT22;49701;48.072;7.800;2024-02-16T05:43:34;8.70;99.90
2663;DHT22;49701;48.072;7.800;2024-02-16T05:46:00;8.70;99.90
2663;DHT22;49701;48.072;7.800;2024-02-16T05:48:26;8.70;99.90
2663;DHT22;49701;48.072;7.800;2024-02-16T05:50:59;8.70;99.90
2663;DHT22;49701;48.072;7.800;2024-02-16T05:53:28;8.70;99.90
2663;DHT22;49701;48.072;7.800;2024-02-16T05:55:54;8.70;99.90
2663;DHT22;49701;48.072;7.800;2024-02-16T05:58:20;8.70;99.90
2663;DHT22;49701;48.072;7.800;2024-02-16T06:00:46;8.70;99.90
2663;DHT22;49701;48.072;7.800;2024-02-16T06:03:13;8.70;99.90
2663;DHT22;49701;48.072;7.800;2024-02-16T06:05:39;8.80;99.90
2663;DHT22;49701;48.072;7.800;2024-02-16T06:08:06;8.80;99.90
2663;DHT22;49701;48.072;7.800;2024-02-16T06:10:32;8.80;99.90
2663;DHT22;49701;48.072;7.800;2024-02-16T06:12:58;8.80;99.90
2663;DHT22;49701;48.072;7.800;2024-02-16T06:15:24;8.80;99.90
2663;DHT22;49701;48.072;7.800;2024-02-16T06:17:50;8.90;99.90
2663;DHT22;49701;48.072;7.800;2024-02-16T06:20:16;8.90;99.90
2663;DHT22;49701;48.072;7.800;2024-02-16T06:22:42;8.90;99.90
2663;DHT22;49701;48.072;7.800;2024-02-16T06:25:08;9.00;99.90
2663;DHT22;49701;48.072;7.800;2024-02-16T06:27:34;9.00;99.90
2663;DHT22;49701;48.072;7.800;2024-02-16T06:29:59;9.10;99.90
2663;DHT22;49701;48.072;7.800;2024-02-16T06:32:25;9.10;99.90
2663;DHT22;49701;48.072;7.800;2024-02-16T06:34:52;9.10;99.90
2663;DHT22;49701;48.072;7.800;2024-02-16T06:37:18;9.20;99.90
2663;DHT22;49701;48.072;7.800;2024-02-16T06:39:43;9.20;99.90
2663;DHT22;49701;48.072;7.800;2024-02-16T06:42:09;9.10;99.90
2663;DHT22;49701;48.072;7.800;2024-02-16T06:44:38;9.10;99.90
2663;DHT22;49701;48.072;7.800;2024-02-16T06:47:04;9.10;99.90
2663;DHT22;49701;48.072;7.800;2024-02-16T06:49:29;9.10;99.90
2663;DHT22;49701;48.072;7.800;2024-02-16T06:51:55;9.20;99.90
2663;DHT22;49701;48.072;7.800;2024-02-16T06:54:21;9.20;99.90
2663;DHT22;49701;48.072;7.800;2024-02-16T06:56:46;9.20;99.90
2663;DHT22;49701;48.072;7.800;2024-02-16T06:59:12;9.20;99.90
2663;DHT22;49701;48.072;7.800;2024-02-16T07:01:37;9.20;99.90
2663;DHT22;49701;48.072;7.800;2024-02-16T07:04:03;9.30;99.90
2663;DHT22;49701;48.072;7.800;2024-02-16T07:06:28;9.30;99.90
2663;DHT22;49701;48.072;7.800;2024-02-16T07:08:54;9.30;99.90
2663;DHT22;49701;48.072;7.800;2024-02-16T07:11:20;9.30;99.90
2663;DHT22;49701;48.072;7.800;2024-02-16T07:13:46;9.30;99.90
2663;DHT22;49701;48.072;7.800;2024-02-16T07:16:12;9.40;99.90
2663;DHT22;49701;48.072;7.800;2024-02-16T07:18:37;9.40;99.90
2663;DHT22;49701;48.072;7.800;2024-02-16T07:21:03;9.40;99.90
2663;DHT22;49701;48.072;7.800;2024-02-16T07:23:29;9.40;99.90
2663;DHT22;49701;48.072;7.800;2024-02-16T07:25:55;9.40;99.90
2663;DHT22;49701;48.072;7.800;2024-02-16T07:28:24;9.40;99.90
2663;DHT22;49701;48.072;7.800;2024-02-16T07:30:50;9.40;99.90
2663;DHT22;49701;48.072;7.800;2024-02-16T07:33:16;9.50;99.90
2663;DHT22;49701;48.072;7.800;2024-02-16T07:35:42;9.60;99.90
2663;DHT22;49701;48.072;7.800;2024-02-16T07:38:07;9.60;99.90
2663;DHT22;49701;48.072;7.800;2024-02-16T07:40:33;9.60;99.90
2663;DHT22;49701;48.072;7.800;2024-02-16T07:42:59;9.70;99.90
2663;DHT22;49701;48.072;7.800;2024-02-16T07:45:25;9.80;99.90
2663;DHT22;49701;48.072;7.800;2024-02-16T07:47:51;9.80;99.90
2663;DHT22;49701;48.072;7.800;2024-02-16T07:50:19;9.90;99.90
2663;DHT22;49701;48.072;7.800;2024-02-16T07:52:48;10.00;99.90
2663;DHT22;49701;48.072;7.800;2024-02-16T07:55:13;10.00;99.90
2663;DHT22;49701;48.072;7.800;2024-02-16T07:57:39;10.10;99.90
2663;DHT22;49701;48.072;7.800;2024-02-16T08:00:05;10.20;99.90
2663;DHT22;49701;48.072;7.800;2024-02-16T08:02:31;10.30;99.90
2663;DHT22;49701;48.072;7.800;2024-02-16T08:04:57;10.50;99.90
2663;DHT22;49701;48.072;7.800;2024-02-16T08:07:23;10.70;99.90
2663;DHT22;49701;48.072;7.800;2024-02-16T08:09:49;10.80;99.90
2663;DHT22;49701;48.072;7.800;2024-02-16T08:12:14;11.00;99.90
2663;DHT22;49701;48.072;7.800;2024-02-16T08:14:40;11.10;99.90
2663;DHT22;49701;48.072;7.800;2024-02-16T08:17:06;11.30;99.90
2663;DHT22;49701;48.072;7.800;2024-02-16T08:19:33;11.40;99.90
2663;DHT22;49701;48.072;7.800;2024-02-16T08:22:02;11.60;99.90
2663;DHT22;49701;48.072;7.800;2024-02-16T08:24:28;11.90;99.90
2663;DHT22;49701;48.072;7.800;2024-02-16T08:26:54;12.20;99.90
2663;DHT22;49701;48.072;7.800;2024-02-16T08:29:20;12.30;99.90
2663;DHT22;49701;48.072;7.800;2024-02-16T08:31:49;12.50;99.90
2663;DHT22;49701;48.072;7.800;2024-02-16T08:34:14;12.70;99.90
2663;DHT22;49701;48.072;7.800;2024-02-16T08:36:43;13.00;99.90
2663;DHT22;49701;48.072;7.800;2024-02-16T08:39:09;13.20;99.90
2663;DHT22;49701;48.072;7.800;2024-02-16T08:41:37;13.50;99.90
2663;DHT22;49701;48.072;7.800;2024-02-16T08:44:03;13.70;99.90
2663;DHT22;49701;48.072;7.800;2024-02-16T08:46:29;13.90;99.90
2663;DHT22;49701;48.072;7.800;2024-02-16T08:48:55;14.10;99.90
2663;DHT22;49701;48.072;7.800;2024-02-16T08:51:20;14.30;99.90
2663;DHT22;49701;48.072;7.800;2024-02-16T08:53:46;14.40;99.90
2663;DHT22;49701;48.072;7.800;2024-02-16T08:56:12;14.60;99.90
2663;DHT22;49701;48.072;7.800;2024-02-16T08:58:38;14.80;99.90
2663;DHT22;49701;48.072;7.800;2024-02-16T09:01:04;14.90;99.90
2663;DHT22;49701;48.072;7.800;2024-02-16T09:03:30;15.10;99.90
2663;DHT22;49701;48.072;7.800;2024-02-16T09:06:02;15.30;99.90
2663;DHT22;49701;48.072;7.800;2024-02-16T09:08:28;15.40;99.90
2663;DHT22;49701;48.072;7.800;2024-02-16T09:11:05;15.50;99.90
2663;DHT22;49701;48.072;7.800;2024-02-16T09:13:33;15.60;99.90
2663;DHT22;49701;48.072;7.800;2024-02-16T09:15:59;15.70;99.90
2663;DHT22;49701;48.072;7.800;2024-02-16T09:18:25;15.80;99.90
2663;DHT22;49701;48.072;7.800;2024-02-16T09:20:51;15.90;99.90
2663;DHT22;49701;48.072;7.800;2024-02-16T09:23:17;15.90;99.90
2663;DHT22;49701;48.072;7.800;2024-02-16T09:25:42;16.00;99.90
2663;DHT22;49701;48.072;7.800;2024-02-16T09:28:09;16.00;99.90
2663;DHT22;49701;48.072;7.800;2024-02-16T09:30:36;16.00;99.90
2663;DHT22;49701;48.072;7.800;2024-02-16T09:33:01;16.10;99.90
2663;DHT22;49701;48.072;7.800;2024-02-16T09:35:28;16.10;99.90
2663;DHT22;49701;48.072;7.800;2024-02-16T09:37:53;16.10;99.90
2663;DHT22;49701;48.072;7.800;2024-02-16T09:40:19;16.10;99.90
2663;DHT22;49701;48.072;7.800;2024-02-16T09:42:47;16.10;99.90
2663;DHT22;49701;48.072;7.800;2024-02-16T09:45:14;16.10;99.90
2663;DHT22;49701;48.072;7.800;2024-02-16T09:47:42;16.10;99.90
2663;DHT22;49701;48.072;7.800;2024-02-16T09:50:08;16.20;99.90
2663;DHT22;49701;48.072;7.800;2024-02-16T09:52:35;16.30;99.90
2663;DHT22;49701;48.072;7.800;2024-02-16T09:55:01;16.30;99.90
2663;DHT22;49701;48.072;7.800;2024-02-16T09:57:27;16.40;99.90
2663;DHT22;49701;48.072;7.800;2024-02-16T09:59:52;16.40;99.90
2663;DHT22;49701;48.072;7.800;2024-02-16T10:02:18;16.50;99.90
2663;DHT22;49701;48.072;7.800;2024-02-16T10:04:43;16.80;99.90
2663;DHT22;49701;48.072;7.800;2024-02-16T10:07:09;16.90;99.90
2663;DHT22;49701;48.072;7.800;2024-02-16T10:09:35;17.00;99.90
2663;DHT22;49701;48.072;7.800;2024-02-16T10:12:01;17.10;99.90
2663;DHT22;49701;48.072;7.800;2024-02-16T10:14:27;17.10;99.90
2663;DHT22;49701;48.072;7.800;2024-02-16T10:17:00;17.10;99.90
2663;DHT22;49701;48.072;7.800;2024-02-16T10:19:26;17.10;99.90
2663;DHT22;49701;48.072;7.800;2024-02-16T10:21:51;17.10;99.90
2663;DHT22;49701;48.072;7.800;2024-02-16T10:24:21;17.10;99.90
2663;DHT22;49701;48.072;7.800;2024-02-16T10:26:46;17.10;99.90
2663;DHT22;49701;48.072;7.800;2024-02-16T10:29:12;17.10;99.90
2663;DHT22;49701;48.072;7.800;2024-02-16T10:31:39;17.10;99.90
2663;DHT22;49701;48.072;7.800;2024-02-16T10:34:05;17.10;99.90
2663;DHT22;49701;48.072;7.800;2024-02-16T10:36:31;17.10;99.90
2663;DHT22;49701;48.072;7.800;2024-02-16T10:38:57;17.10;99.90
2663;DHT22;49701;48.072;7.800;2024-02-16T10:41:26;17.10;99.90
2663;DHT22;49701;48.072;7.800;2024-02-16T10:43:53;17.00;99.90
2663;DHT22;49701;48.072;7.800;2024-02-16T10:46:19;17.00;99.90
2663;DHT22;49701;48.072;7.800;2024-02-16T10:48:45;16.90;99.90
2663;DHT22;49701;48.072;7.800;2024-02-16T10:51:11;16.80;99.90
2663;DHT22;49701;48.072;7.800;2024-02-16T10:53:37;16.80;99.90
2663;DHT22;49701;48.072;7.800;2024-02-16T10:56:03;16.60;99.90
2663;DHT22;49701;48.072;7.800;2024-02-16T10:58:28;16.60;99.90
2663;DHT22;49701;48.072;7.800;2024-02-16T11:00:57;16.50;99.90
2663;DHT22;49701;48.072;7.800;2024-02-16T11:03:23;16.50;99.90
2663;DHT22;49701;48.072;7.800;2024-02-16T11:05:49;16.50;99.90
2663;DHT22;49701;48.072;7.800;2024-02-16T11:08:16;16.50;99.90
2663;DHT22;49701;48.072;7.800;2024-02-16T11:10:58;16.40;99.90
2663;DHT22;49701;48.072;7.800;2024-02-16T11:13:27;16.40;99.90
2663;DHT22;49701;48.072;7.800;2024-02-16T11:16:00;16.40;99.90
2663;DHT22;49701;48.072;7.800;2024-02-16T11:18:29;16.50;99.90
2663;DHT22;49701;48.072;7.800;2024-02-16T11:20:55;16.60;99.90
2663;DHT22;49701;48.072;7.800;2024-02-16T11:23:27;16.70;99.90
2663;DHT22;49701;48.072;7.800;2024-02-16T11:26:02;16.80;99.90
2663;DHT22;49701;48.072;7.800;2024-02-16T11:28:31;16.80;99.90
2663;DHT22;49701;48.072;7.800;2024-02-16T11:30:58;16.80;99.90
2663;DHT22;49701;48.072;7.800;2024-02-16T11:33:24;16.70;99.90
2663;DHT22;49701;48.072;7.800;2024-02-16T11:36:07;16.60;99.90
2663;DHT22;49701;48.072;7.800;2024-02-16T11:38:33;16.50;99.90
2663;DHT22;49701;48.072;7.800;2024-02-16T11:41:00;16.40;99.90
2663;DHT22;49701;48.072;7.800;2024-02-16T11:43:26;16.40;99.90
2663;DHT22;49701;48.072;7.800;2024-02-16T11:45:52;16.40;99.90
2663;DHT22;49701;48.072;7.800;2024-02-16T11:48:24;16.40;99.90
2663;DHT22;49701;48.072;7.800;2024-02-16T11:50:58;16.40;99.90
2663;DHT22;49701;48.072;7.800;2024-02-16T11:53:24;16.30;99.90
2663;DHT22;49701;48.072;7.800;2024-02-16T11:55:50;16.30;99.90
2663;DHT22;49701;48.072;7.800;2024-02-16T11:58:16;16.20;99.90
2663;DHT22;49701;48.072;7.800;2024-02-16T12:00:43;16.20;99.90
2663;DHT22;49701;48.072;7.800;2024-02-16T12:03:08;16.10;99.90
2663;DHT22;49701;48.072;7.800;2024-02-16T12:05:34;16.10;99.90
2663;DHT22;49701;48.072;7.800;2024-02-16T12:07:59;16.00;99.90
2663;DHT22;49701;48.072;7.800;2024-02-16T12:10:25;15.90;99.90
2663;DHT22;49701;48.072;7.800;2024-02-16T12:12:52;16.00;99.90
2663;DHT22;49701;48.072;7.800;2024-02-16T12:15:18;16.00;99.90
2663;DHT22;49701;48.072;7.800;2024-02-16T12:17:45;16.00;99.90
2663;DHT22;49701;48.072;7.800;2024-02-16T12:20:11;16.00;99.90
2663;DHT22;49701;48.072;7.800;2024-02-16T12:22:37;16.00;99.90
2663;DHT22;49701;48.072;7.800;2024-02-16T12:25:03;15.90;99.90
2663;DHT22;49701;48.072;7.800;2024-02-16T12:27:29;15.80;99.90
2663;DHT22;49701;48.072;7.800;2024-02-16T12:29:54;15.80;99.90
2663;DHT22;49701;48.072;7.800;2024-02-16T12:32:20;15.70;99.90
2663;DHT22;49701;48.072;7.800;2024-02-16T12:34:46;15.70;99.90
2663;DHT22;49701;48.072;7.800;2024-02-16T12:37:12;15.60;99.90
2663;DHT22;49701;48.072;7.800;2024-02-16T12:39:38;15.50;99.90
2663;DHT22;49701;48.072;7.800;2024-02-16T12:42:03;15.40;99.90
2663;DHT22;49701;48.072;7.800;2024-02-16T12:44:29;15.30;99.90
2663;DHT22;49701;48.072;7.800;2024-02-16T12:46:56;15.30;99.90
2663;DHT22;49701;48.072;7.800;2024-02-16T12:49:21;15.20;99.90
2663;DHT22;49701;48.072;7.800;2024-02-16T12:51:51;15.20;99.90
2663;DHT22;49701;48.072;7.800;2024-02-16T12:54:17;15.10;99.90
2663;DHT22;49701;48.072;7.800;2024-02-16T12:56:46;15.10;99.90
2663;DHT22;49701;48.072;7.800;2024-02-16T12:59:12;15.10;99.90
2663;DHT22;49701;48.072;7.800;2024-02-16T13:01:37;15.10;99.90
2663;DHT22;49701;48.072;7.800;2024-02-16T13:04:03;15.10;99.90
2663;DHT22;49701;48.072;7.800;2024-02-16T13:06:29;15.00;99.90
2663;DHT22;49701;48.072;7.800;2024-02-16T13:08:55;15.00;99.90
2663;DHT22;49701;48.072;7.800;2024-02-16T13:11:21;15.10;99.90
2663;DHT22;49701;48.072;7.800;2024-02-16T13:13:46;15.10;99.90
2663;DHT22;49701;48.072;7.800;2024-02-16T13:16:12;15.10;99.90
2663;DHT22;49701;48.072;7.800;2024-02-16T13:18:37;15.10;99.90
2663;DHT22;49701;48.072;7.800;2024-02-16T13:21:03;15.10;99.90
2663;DHT22;49701;48.072;7.800;2024-02-16T13:23:28;15.10;99.90
2663;DHT22;49701;48.072;7.800;2024-02-16T13:25:56;15.10;99.90
2663;DHT22;49701;48.072;7.800;2024-02-16T13:28:22;15.20;99.90
2663;DHT22;49701;48.072;7.800;2024-02-16T13:30:47;15.20;99.90
2663;DHT22;49701;48.072;7.800;2024-02-16T13:33:13;15.20;99.90
2663;DHT22;49701;48.072;7.800;2024-02-16T13:35:38;15.20;99.90
2663;DHT22;49701;48.072;7.800;2024-02-16T13:38:04;15.30;99.90
2663;DHT22;49701;48.072;7.800;2024-02-16T13:40:30;15.40;99.90
2663;DHT22;49701;48.072;7.800;2024-02-16T13:42:56;15.40;99.90
2663;DHT22;49701;48.072;7.800;2024-02-16T13:45:27;15.50;99.90
2663;DHT22;49701;48.072;7.800;2024-02-16T13:47:53;15.60;99.90
2663;DHT22;49701;48.072;7.800;2024-02-16T13:50:18;15.70;99.90
2663;DHT22;49701;48.072;7.800;2024-02-16T13:52:44;15.80;99.90
2663;DHT22;49701;48.072;7.800;2024-02-16T13:55:10;15.90;99.90
2663;DHT22;49701;48.072;7.800;2024-02-16T13:57:36;15.90;99.90
2663;DHT22;49701;48.072;7.800;2024-02-16T14:00:01;16.00;99.90
2663;DHT22;49701;48.072;7.800;2024-02-16T14:02:27;16.10;99.90
2663;DHT22;49701;48.072;7.800;2024-02-16T14:04:53;16.10;99.90
2663;DHT22;49701;48.072;7.800;2024-02-16T14:07:18;16.20;99.90
2663;DHT22;49701;48.072;7.800;2024-02-16T14:09:44;16.20;99.90
2663;DHT22;49701;48.072;7.800;2024-02-16T14:12:09;16.30;99.90
2663;DHT22;49701;48.072;7.800;2024-02-16T14:14:35;16.30;99.90
2663;DHT22;49701;48.072;7.800;2024-02-16T14:17:00;16.20;99.90
2663;DHT22;49701;48.072;7.800;2024-02-16T14:19:26;16.30;99.90
2663;DHT22;49701;48.072;7.800;2024-02-16T14:21:52;16.20;99.90
2663;DHT22;49701;48.072;7.800;2024-02-16T14:24:17;16.20;99.90
2663;DHT22;49701;48.072;7.800;2024-02-16T14:26:43;16.20;99.90
2663;DHT22;49701;48.072;7.800;2024-02-16T14:29:09;16.10;99.90
2663;DHT22;49701;48.072;7.800;2024-02-16T14:31:36;16.10;99.90
2663;DHT22;49701;48.072;7.800;2024-02-16T14:34:01;16.10;99.90
2663;DHT22;49701;48.072;7.800;2024-02-16T14:36:27;16.00;99.90
2663;DHT22;49701;48.072;7.800;2024-02-16T14:38:53;15.90;99.90
2663;DHT22;49701;48.072;7.800;2024-02-16T14:41:18;15.80;99.90
2663;DHT22;49701;48.072;7.800;2024-02-16T14:43:44;15.70;99.90
2663;DHT22;49701;48.072;7.800;2024-02-16T14:46:10;15.70;99.90
2663;DHT22;49701;48.072;7.800;2024-02-16T14:48:36;15.70;99.90
2663;DHT22;49701;48.072;7.800;2024-02-16T14:51:02;15.60;99.90
2663;DHT22;49701;48.072;7.800;2024-02-16T14:53:28;15.60;99.90
2663;DHT22;49701;48.072;7.800;2024-02-16T14:55:58;15.50;99.90
2663;DHT22;49701;48.072;7.800;2024-02-16T14:58:24;15.50;99.90
2663;DHT22;49701;48.072;7.800;2024-02-16T15:00:49;15.50;99.90
2663;DHT22;49701;48.072;7.800;2024-02-16T15:03:15;15.40;99.90
2663;DHT22;49701;48.072;7.800;2024-02-16T15:05:40;15.50;99.90
2663;DHT22;49701;48.072;7.800;2024-02-16T15:08:06;15.40;99.90
2663;DHT22;49701;48.072;7.800;2024-02-16T15:10:32;15.40;99.90
2663;DHT22;49701;48.072;7.800;2024-02-16T15:12:57;15.40;99.90
2663;DHT22;49701;48.072;7.800;2024-02-16T15:15:23;15.40;99.90
2663;DHT22;49701;48.072;7.800;2024-02-16T15:17:49;15.50;99.90
2663;DHT22;49701;48.072;7.800;2024-02-16T15:20:14;15.40;99.90
2663;DHT22;49701;48.072;7.800;2024-02-16T15:22:40;15.40;99.90
2663;DHT22;49701;48.072;7.800;2024-02-16T15:25:10;15.40;99.90
2663;DHT22;49701;48.072;7.800;2024-02-16T15:27:44;15.40;99.90
2663;DHT22;49701;48.072;7.800;2024-02-16T15:30:10;15.40;99.90
2663;DHT22;49701;48.072;7.800;2024-02-16T15:32:35;15.50;99.90
2663;DHT22;49701;48.072;7.800;2024-02-16T15:35:01;15.50;99.90
2663;DHT22;49701;48.072;7.800;2024-02-16T15:37:28;15.50;99.90
2663;DHT22;49701;48.072;7.800;2024-02-16T15:39:53;15.50;99.90
2663;DHT22;49701;48.072;7.800;2024-02-16T15:42:25;15.40;99.90
2663;DHT22;49701;48.072;7.800;2024-02-16T15:44:51;15.40;99.90